sensor_id;sensor_type;location;lat;lon;timestamp;temperature;humidity
11656;DHT22;5884;43.618;1.438;2023-05-10T04:46:22;12.10;99.90
11656;DHT22;5884;43.618;1.438;2023-05-10T04:48:50;12.20;99.90
11656;DHT22;5884;43.618;1.438;2023-05-10T04:51:17;12.10;99.90
11656;DHT22;5884;43.618;1.438;2023-05-10T04:53:44;12.10;99.90
11656;DHT22;5884;43.618;1.438;2023-05-10T04:56:13;12.10;99.90
11656;DHT22;5884;43.618;1.438;2023-05-10T04:58:40;12.10;99.90
11656;DHT22;5884;43.618;1.438;2023-05-10T05:01:08;12.10;99.90
11656;DHT22;5884;43.618;1.438;2023-05-10T05:03:37;12.10;99.90
11656;DHT22;5884;43.618;1.438;2023-05-10T05:06:05;12.10;99.90
11656;DHT22;5884;43.618;1.438;2023-05-10T05:08:32;12.10;99.90
11656;DHT22;5884;43.618;1.438;2023-05-10T05:11:00;12.00;99.90
11656;DHT22;5884;43.618;1.438;2023-05-10T05:13:27;12.00;99.90
11656;DHT22;5884;43.618;1.438;2023-05-10T05:15:54;12.00;99.90
11656;DHT22;5884;43.618;1.438;2023-05-10T05:18:21;12.10;99.90
11656;DHT22;5884;43.618;1.438;2023-05-10T05:20:50;12.10;99.90
11656;DHT22;5884;43.618;1.438;2023-05-10T05:23:17;12.10;99.90
11656;DHT22;5884;43.618;1.438;2023-05-10T05:25:46;12.10;99.90
11656;DHT22;5884;43.618;1.438;2023-05-10T05:28:13;12.10;99.90
11656;DHT22;5884;43.618;1.438;2023-05-10T05:30:40;12.10;99.90
11656;DHT22;5884;43.618;1.438;2023-05-10T05:33:07;12.10;99.90
11656;DHT22;5884;43.618;1.438;2023-05-10T05:35:35;12.00;99.90
11656;DHT22;5884;43.618;1.438;2023-05-10T05:38:03;12.10;99.90
11656;DHT22;5884;43.618;1.438;2023-05-10T05:40:30;12.10;99.90
11656;DHT22;5884;43.618;1.438;2023-05-10T05:42:58;12.10;99.90
11656;DHT22;5884;43.618;1.438;2023-05-10T05:45:25;12.10;99.90
11656;DHT22;5884;43.618;1.438;2023-05-10T05:47:52;12.20;99.90
11656;DHT22;5884;43.618;1.438;2023-05-10T05:50:19;12.20;99.90
11656;DHT22;5884;43.618;1.438;2023-05-10T05:52:46;12.20;99.90
11656;DHT22;5884;43.618;1.438;2023-05-10T05:55:15;12.40;99.90
11656;DHT22;5884;43.618;1.438;2023-05-10T05:57:43;12.40;99.90
11656;DHT22;5884;43.618;1.438;2023-05-10T06:00:10;12.40;99.90
11656;DHT22;5884;43.618;1.438;2023-05-10T06:02:38;12.40;99.90
11656;DHT22;5884;43.618;1.438;2023-05-10T06:05:06;12.40;99.90
11656;DHT22;5884;43.618;1.438;2023-05-10T06:07:34;12.40;99.90
11656;DHT22;5884;43.618;1.438;2023-05-10T06:10:02;12.40;99.90
11656;DHT22;5884;43.618;1.438;2023-05-10T06:12:31;12.50;99.90
11656;DHT22;5884;43.618;1.438;2023-05-10T06:14:58;12.40;99.90
11656;DHT22;5884;43.618;1.438;2023-05-10T06:17:26;12.40;99.90
11656;DHT22;5884;43.618;1.438;2023-05-10T06:19:54;12.40;99.90
11656;DHT22;5884;43.618;1.438;2023-05-10T06:22:21;12.50;99.90
11656;DHT22;5884;43.618;1.438;2023-05-10T06:24:48;12.50;99.90
11656;DHT22;5884;43.618;1.438;2023-05-10T06:27:16;12.60;99.90
11656;DHT22;5884;43.618;1.438;2023-05-10T06:29:44;12.60;99.90
11656;DHT22;5884;43.618;1.438;2023-05-10T06:32:11;12.70;99.90
11656;DHT22;5884;43.618;1.438;2023-05-10T06:34:39;12.80;99.90
11656;DHT22;5884;43.618;1.438;2023-05-10T06:37:06;12.70;99.90
11656;DHT22;5884;43.618;1.438;2023-05-10T06:39:33;12.60;99.90
11656;DHT22;5884;43.618;1.438;2023-05-10T06:42:00;12.60;99.90
11656;DHT22;5884;43.618;1.438;2023-05-10T06:44:30;12.70;99.90
11656;DHT22;5884;43.618;1.438;2023-05-10T06:46:58;12.90;99.90
11656;DHT22;5884;43.618;1.438;2023-05-10T06:49:26;13.00;99.90
11656;DHT22;5884;43.618;1.438;2023-05-10T06:51:53;13.10;99.90
11656;DHT22;5884;43.618;1.438;2023-05-10T06:54:21;13.20;99.90
11656;DHT22;5884;43.618;1.438;2023-05-10T06:56:48;13.20;99.90
11656;DHT22;5884;43.618;1.438;2023-05-10T06:59:15;13.10;99.90
11656;DHT22;5884;43.618;1.438;2023-05-10T07:01:44;13.10;99.90
11656;DHT22;5884;43.618;1.438;2023-05-10T07:04:13;13.20;99.90
11656;DHT22;5884;43.618;1.438;2023-05-10T07:06:40;13.20;99.90
11656;DHT22;5884;43.618;1.438;2023-05-10T07:09:07;13.30;99.90
11656;DHT22;5884;43.618;1.438;2023-05-10T07:11:34;13.40;99.90
11656;DHT22;5884;43.618;1.438;2023-05-10T07:14:02;13.50;99.90
11656;DHT22;5884;43.618;1.438;2023-05-10T07:16:30;13.70;99.90
11656;DHT22;5884;43.618;1.438;2023-05-10T07:18:57;13.80;99.90
11656;DHT22;5884;43.618;1.438;2023-05-10T07:21:26;13.90;99.90
11656;DHT22;5884;43.618;1.438;2023-05-10T07:23:54;14.00;99.90
11656;DHT22;5884;43.618;1.438;2023-05-10T07:26:21;14.00;99.90
11656;DHT22;5884;43.618;1.438;2023-05-10T07:28:48;13.90;99.90
11656;DHT22;5884;43.618;1.438;2023-05-10T07:31:15;13.90;99.90
11656;DHT22;5884;43.618;1.438;2023-05-10T07:33:43;14.10;99.90
11656;DHT22;5884;43.618;1.438;2023-05-10T07:36:10;14.00;99.90
11656;DHT22;5884;43.618;1.438;2023-05-10T07:38:38;14.10;99.90
11656;DHT22;5884;43.618;1.438;2023-05-10T07:41:06;14.20;99.90
11656;DHT22;5884;43.618;1.438;2023-05-10T07:43:33;14.10;99.90
11656;DHT22;5884;43.618;1.438;2023-05-10T07:46:00;13.90;99.90
11656;DHT22;5884;43.618;1.438;2023-05-10T07:48:27;13.90;99.90
11656;DHT22;5884;43.618;1.438;2023-05-10T07:50:54;13.80;99.90
11656;DHT22;5884;43.618;1.438;2023-05-10T07:53:22;13.80;99.90
11656;DHT22;5884;43.618;1.438;2023-05-10T07:55:51;14.10;99.90
11656;DHT22;5884;43.618;1.438;2023-05-10T07:58:21;14.40;99.90
11656;DHT22;5884;43.618;1.438;2023-05-10T08:00:48;14.20;99.90
11656;DHT22;5884;43.618;1.438;2023-05-10T08:03:15;14.30;99.90
11656;DHT22;5884;43.618;1.438;2023-05-10T08:05:43;14.50;99.90
11656;DHT22;5884;43.618;1.438;2023-05-10T08:08:10;14.40;99.90
11656;DHT22;5884;43.618;1.438;2023-05-10T08:10:37;14.40;99.90
11656;DHT22;5884;43.618;1.438;2023-05-10T08:13:06;14.60;99.90
11656;DHT22;5884;43.618;1.438;2023-05-10T08:15:33;14.80;99.90
11656;DHT22;5884;43.618;1.438;2023-05-10T08:18:00;15.10;99.90
11656;DHT22;5884;43.618;1.438;2023-05-10T08:20:27;15.30;99.90
11656;DHT22;5884;43.618;1.438;2023-05-10T08:22:55;15.40;99.90
11656;DHT22;5884;43.618;1.438;2023-05-10T08:25:22;15.20;99.90
11656;DHT22;5884;43.618;1.438;2023-05-10T08:27:49;15.10;99.90
11656;DHT22;5884;43.618;1.438;2023-05-10T08:30:17;15.10;99.90
11656;DHT22;5884;43.618;1.438;2023-05-10T08:32:45;14.90;99.90
11656;DHT22;5884;43.618;1.438;2023-05-10T08:35:12;14.50;99.90
11656;DHT22;5884;43.618;1.438;2023-05-10T08:37:39;14.50;99.90
11656;DHT22;5884;43.618;1.438;2023-05-10T08:40:07;14.80;99.90
11656;DHT22;5884;43.618;1.438;2023-05-10T08:42:36;15.00;99.90
11656;DHT22;5884;43.618;1.438;2023-05-10T08:45:08;15.30;99.90
11656;DHT22;5884;43.618;1.438;2023-05-10T08:47:37;15.50;99.90
11656;DHT22;5884;43.618;1.438;2023-05-10T08:50:06;15.70;99.90
11656;DHT22;5884;43.618;1.438;2023-05-10T08:52:37;15.80;99.90
11656;DHT22;5884;43.618;1.438;2023-05-10T08:55:06;15.70;99.90
11656;DHT22;5884;43.618;1.438;2023-05-10T08:57:33;15.60;99.90
11656;DHT22;5884;43.618;1.438;2023-05-10T09:00:01;15.50;99.90
11656;DHT22;5884;43.618;1.438;2023-05-10T09:02:29;15.50;99.90
11656;DHT22;5884;43.618;1.438;2023-05-10T09:04:58;15.70;99.90
11656;DHT22;5884;43.618;1.438;2023-05-10T09:07:26;15.70;99.90
11656;DHT22;5884;43.618;1.438;2023-05-10T09:09:54;15.80;99.90
11656;DHT22;5884;43.618;1.438;2023-05-10T09:12:22;16.30;99.90
11656;DHT22;5884;43.618;1.438;2023-05-10T09:14:50;16.50;99.90
11656;DHT22;5884;43.618;1.438;2023-05-10T09:17:18;16.20;99.90
11656;DHT22;5884;43.618;1.438;2023-05-10T09:19:45;16.20;99.90
11656;DHT22;5884;43.618;1.438;2023-05-10T09:22:14;16.20;99.90
11656;DHT22;5884;43.618;1.438;2023-05-10T09:24:42;16.20;99.90
11656;DHT22;5884;43.618;1.438;2023-05-10T09:27:10;16.50;99.90
11656;DHT22;5884;43.618;1.438;2023-05-10T09:29:41;16.90;99.90
11656;DHT22;5884;43.618;1.438;2023-05-10T09:32:09;16.80;99.90
11656;DHT22;5884;43.618;1.438;2023-05-10T09:34:36;16.60;99.90
11656;DHT22;5884;43.618;1.438;2023-05-10T09:37:05;16.50;99.90
11656;DHT22;5884;43.618;1.438;2023-05-10T09:39:36;16.60;99.90
11656;DHT22;5884;43.618;1.438;2023-05-10T09:42:04;16.70;99.90
11656;DHT22;5884;43.618;1.438;2023-05-10T09:44:35;16.70;99.90
11656;DHT22;5884;43.618;1.438;2023-05-10T09:47:04;16.60;99.90
11656;DHT22;5884;43.618;1.438;2023-05-10T09:49:32;16.50;99.90
11656;DHT22;5884;43.618;1.438;2023-05-10T09:52:01;16.50;99.90
11656;DHT22;5884;43.618;1.438;2023-05-10T09:54:29;16.60;99.90
11656;DHT22;5884;43.618;1.438;2023-05-10T09:56:58;16.60;99.90
11656;DHT22;5884;43.618;1.438;2023-05-10T09:59:26;16.90;99.90
11656;DHT22;5884;43.618;1.438;2023-05-10T10:01:56;17.00;99.90
11656;DHT22;5884;43.618;1.438;2023-05-10T10:04:24;16.90;99.90
11656;DHT22;5884;43.618;1.438;2023-05-10T10:07:01;17.00;99.90
11656;DHT22;5884;43.618;1.438;2023-05-10T10:09:30;16.90;99.90
11656;DHT22;5884;43.618;1.438;2023-05-10T10:11:59;17.10;99.90
11656;DHT22;5884;43.618;1.438;2023-05-10T10:14:26;17.30;99.90
11656;DHT22;5884;43.618;1.438;2023-05-10T10:16:54;17.50;99.90
11656;DHT22;5884;43.618;1.438;2023-05-10T10:19:22;17.80;99.90
11656;DHT22;5884;43.618;1.438;2023-05-10T10:21:50;17.80;99.90
11656;DHT22;5884;43.618;1.438;2023-05-10T10:24:17;17.80;99.90
11656;DHT22;5884;43.618;1.438;2023-05-10T10:26:45;17.90;99.90
11656;DHT22;5884;43.618;1.438;2023-05-10T10:29:21;18.10;99.90
11656;DHT22;5884;43.618;1.438;2023-05-10T10:31:57;18.00;99.90
11656;DHT22;5884;43.618;1.438;2023-05-10T10:34:30;17.90;99.90
11656;DHT22;5884;43.618;1.438;2023-05-10T10:37:04;17.90;99.90
11656;DHT22;5884;43.618;1.438;2023-05-10T10:39:32;18.00;99.90
11656;DHT22;5884;43.618;1.438;2023-05-10T10:42:02;17.90;99.90
11656;DHT22;5884;43.618;1.438;2023-05-10T10:44:36;17.90;99.90
11656;DHT22;5884;43.618;1.438;2023-05-10T10:47:22;18.00;99.90
11656;DHT22;5884;43.618;1.438;2023-05-10T10:49:51;17.60;99.90
11656;DHT22;5884;43.618;1.438;2023-05-10T10:52:25;17.30;99.90
11656;DHT22;5884;43.618;1.438;2023-05-10T10:54:59;17.60;99.90
11656;DHT22;5884;43.618;1.438;2023-05-10T10:57:29;18.10;99.90
11656;DHT22;5884;43.618;1.438;2023-05-10T11:00:25;17.80;99.90
11656;DHT22;5884;43.618;1.438;2023-05-10T11:02:56;17.30;99.90
11656;DHT22;5884;43.618;1.438;2023-05-10T11:05:45;16.80;99.90
11656;DHT22;5884;43.618;1.438;2023-05-10T11:08:18;16.40;99.90
11656;DHT22;5884;43.618;1.438;2023-05-10T11:11:04;15.40;99.90
11656;DHT22;5884;43.618;1.438;2023-05-10T11:13:39;15.20;99.90
11656;DHT22;5884;43.618;1.438;2023-05-10T11:16:13;14.90;99.90
11656;DHT22;5884;43.618;1.438;2023-05-10T11:18:53;15.00;99.90
11656;DHT22;5884;43.618;1.438;2023-05-10T11:21:29;14.70;99.90
11656;DHT22;5884;43.618;1.438;2023-05-10T11:23:59;14.50;99.90
11656;DHT22;5884;43.618;1.438;2023-05-10T11:26:31;14.40;99.90
11656;DHT22;5884;43.618;1.438;2023-05-10T11:28:59;14.40;99.90
11656;DHT22;5884;43.618;1.438;2023-05-10T11:31:29;14.20;99.90
11656;DHT22;5884;43.618;1.438;2023-05-10T11:33:57;14.40;99.90
11656;DHT22;5884;43.618;1.438;2023-05-10T11:36:28;14.30;99.90
11656;DHT22;5884;43.618;1.438;2023-05-10T11:38:57;14.50;99.90
11656;DHT22;5884;43.618;1.438;2023-05-10T11:41:25;14.50;99.90
11656;DHT22;5884;43.618;1.438;2023-05-10T11:43:54;14.50;99.90
11656;DHT22;5884;43.618;1.438;2023-05-10T11:46:23;14.60;99.90
11656;DHT22;5884;43.618;1.438;2023-05-10T11:48:58;14.90;99.90
11656;DHT22;5884;43.618;1.438;2023-05-10T11:51:32;15.30;99.90
11656;DHT22;5884;43.618;1.438;2023-05-10T11:54:00;15.50;99.90
11656;DHT22;5884;43.618;1.438;2023-05-10T11:56:27;15.40;99.90
11656;DHT22;5884;43.618;1.438;2023-05-10T11:58:55;15.50;99.90
11656;DHT22;5884;43.618;1.438;2023-05-10T12:01:24;15.40;99.90
11656;DHT22;5884;43.618;1.438;2023-05-10T12:03:55;15.70;99.90
11656;DHT22;5884;43.618;1.438;2023-05-10T12:06:26;15.70;99.90
11656;DHT22;5884;43.618;1.438;2023-05-10T12:08:54;15.60;99.90
11656;DHT22;5884;43.618;1.438;2023-05-10T12:11:25;15.70;99.90
11656;DHT22;5884;43.618;1.438;2023-05-10T12:13:53;16.20;99.90
11656;DHT22;5884;43.618;1.438;2023-05-10T12:16:21;16.40;99.90
11656;DHT22;5884;43.618;1.438;2023-05-10T12:18:49;16.50;99.90
11656;DHT22;5884;43.618;1.438;2023-05-10T12:21:20;16.70;99.90
11656;DHT22;5884;43.618;1.438;2023-05-10T12:23:50;16.70;99.90
11656;DHT22;5884;43.618;1.438;2023-05-10T12:26:20;16.80;99.90
11656;DHT22;5884;43.618;1.438;2023-05-10T12:28:48;16.80;99.90
11656;DHT22;5884;43.618;1.438;2023-05-10T12:31:15;17.00;99.90
11656;DHT22;5884;43.618;1.438;2023-05-10T12:33:44;17.00;99.90
11656;DHT22;5884;43.618;1.438;2023-05-10T12:36:13;17.20;99.90
11656;DHT22;5884;43.618;1.438;2023-05-10T12:38:43;17.30;99.90
11656;DHT22;5884;43.618;1.438;2023-05-10T12:41:14;17.40;99.90
11656;DHT22;5884;43.618;1.438;2023-05-10T12:43:42;17.50;99.90
11656;DHT22;5884;43.618;1.438;2023-05-10T12:46:12;17.80;99.90
11656;DHT22;5884;43.618;1.438;2023-05-10T12:48:40;17.60;99.90
11656;DHT22;5884;43.618;1.438;2023-05-10T12:51:09;17.60;99.90
11656;DHT22;5884;43.618;1.438;2023-05-10T12:53:38;17.60;99.90
11656;DHT22;5884;43.618;1.438;2023-05-10T12:56:07;17.60;99.90
11656;DHT22;5884;43.618;1.438;2023-05-10T12:58:34;17.80;99.90
11656;DHT22;5884;43.618;1.438;2023-05-10T13:01:02;18.10;99.90
11656;DHT22;5884;43.618;1.438;2023-05-10T13:03:30;18.10;99.90
11656;DHT22;5884;43.618;1.438;2023-05-10T13:05:57;18.00;99.90
11656;DHT22;5884;43.618;1.438;2023-05-10T13:08:24;18.00;99.90
11656;DHT22;5884;43.618;1.438;2023-05-10T13:10:52;17.90;99.90
11656;DHT22;5884;43.618;1.438;2023-05-10T13:13:20;17.90;99.90
11656;DHT22;5884;43.618;1.438;2023-05-10T13:15:47;18.10;99.90
11656;DHT22;5884;43.618;1.438;2023-05-10T13:18:15;18.10;99.90
11656;DHT22;5884;43.618;1.438;2023-05-10T13:20:42;18.30;99.90
11656;DHT22;5884;43.618;1.438;2023-05-10T13:23:09;18.30;99.90
11656;DHT22;5884;43.618;1.438;2023-05-10T13:25:37;18.30;99.90
11656;DHT22;5884;43.618;1.438;2023-05-10T13:28:04;18.50;99.90
11656;DHT22;5884;43.618;1.438;2023-05-10T13:30:33;18.60;99.90
11656;DHT22;5884;43.618;1.438;2023-05-10T13:33:00;18.50;99.90
11656;DHT22;5884;43.618;1.438;2023-05-10T13:35:27;18.20;99.90
11656;DHT22;5884;43.618;1.438;2023-05-10T13:37:55;18.50;99.90
11656;DHT22;5884;43.618;1.438;2023-05-10T13:40:23;18.80;99.90
11656;DHT22;5884;43.618;1.438;2023-05-10T13:42:50;18.50;99.90
11656;DHT22;5884;43.618;1.438;2023-05-10T13:45:18;18.30;99.90
11656;DHT22;5884;43.618;1.438;2023-05-10T13:47:47;18.10;99.90
11656;DHT22;5884;43.618;1.438;2023-05-10T13:50:15;17.70;99.90
11656;DHT22;5884;43.618;1.438;2023-05-10T13:52:42;17.60;99.90
11656;DHT22;5884;43.618;1.438;2023-05-10T13:55:09;17.70;99.90
11656;DHT22;5884;43.618;1.438;2023-05-10T13:57:37;17.90;99.90
11656;DHT22;5884;43.618;1.438;2023-05-10T14:00:06;17.80;99.90
11656;DHT22;5884;43.618;1.438;2023-05-10T14:02:34;17.20;99.90
11656;DHT22;5884;43.618;1.438;2023-05-10T14:05:03;17.10;99.90
11656;DHT22;5884;43.618;1.438;2023-05-10T14:07:31;16.90;99.90
11656;DHT22;5884;43.618;1.438;2023-05-10T14:09:59;16.90;99.90
11656;DHT22;5884;43.618;1.438;2023-05-10T14:12:27;16.50;99.90
11656;DHT22;5884;43.618;1.438;2023-05-10T14:14:54;16.30;99.90
11656;DHT22;5884;43.618;1.438;2023-05-10T14:17:22;16.30;99.90
11656;DHT22;5884;43.618;1.438;2023-05-10T14:19:49;16.40;99.90
11656;DHT22;5884;43.618;1.438;2023-05-10T14:22:17;16.30;99.90
11656;DHT22;5884;43.618;1.438;2023-05-10T14:24:45;16.20;99.90
11656;DHT22;5884;43.618;1.438;2023-05-10T14:27:12;16.30;99.90
11656;DHT22;5884;43.618;1.438;2023-05-10T14:29:40;16.40;99.90
11656;DHT22;5884;43.618;1.438;2023-05-10T14:32:07;16.60;99.90
11656;DHT22;5884;43.618;1.438;2023-05-10T14:34:34;16.50;99.90
11656;DHT22;5884;43.618;1.438;2023-05-10T14:37:02;16.30;99.90
11656;DHT22;5884;43.618;1.438;2023-05-10T14:39:31;16.30;99.90
11656;DHT22;5884;43.618;1.438;2023-05-10T14:41:58;16.50;99.90
11656;DHT22;5884;43.618;1.438;2023-05-10T14:44:25;16.50;99.90
11656;DHT22;5884;43.618;1.438;2023-05-10T14:46:53;16.50;99.90
11656;DHT22;5884;43.618;1.438;2023-05-10T14:49:21;16.70;99.90
11656;DHT22;5884;43.618;1.438;2023-05-10T14:51:51;16.80;99.90
11656;DHT22;5884;43.618;1.438;2023-05-10T14:54:18;16.70;99.90
11656;DHT22;5884;43.618;1.438;2023-05-10T14:56:47;16.80;99.90
11656;DHT22;5884;43.618;1.438;2023-05-10T14:59:15;17.00;99.90
11656;DHT22;5884;43.618;1.438;2023-05-10T15:01:42;17.10;99.90
11656;DHT22;5884;43.618;1.438;2023-05-10T15:04:09;17.30;99.90
11656;DHT22;5884;43.618;1.438;2023-05-10T15:06:38;17.20;99.90
11656;DHT22;5884;43.618;1.438;2023-05-10T15:09:06;17.10;99.90
11656;DHT22;5884;43.618;1.438;2023-05-10T15:11:34;17.30;99.90
11656;DHT22;5884;43.618;1.438;2023-05-10T15:14:02;17.50;99.90
11656;DHT22;5884;43.618;1.438;2023-05-10T15:16:30;17.80;99.90
11656;DHT22;5884;43.618;1.438;2023-05-10T15:18:57;17.50;99.90
11656;DHT22;5884;43.618;1.438;2023-05-10T15:21:24;17.50;99.90
11656;DHT22;5884;43.618;1.438;2023-05-10T15:23:51;17.40;99.90
11656;DHT22;5884;43.618;1.438;2023-05-10T15:26:18;17.20;99.90
11656;DHT22;5884;43.618;1.438;2023-05-10T15:28:47;17.00;99.90
11656;DHT22;5884;43.618;1.438;2023-05-10T15:31:16;16.80;99.90
11656;DHT22;5884;43.618;1.438;2023-05-10T15:33:43;16.60;99.90
11656;DHT22;5884;43.618;1.438;2023-05-10T15:36:10;16.50;99.90
11656;DHT22;5884;43.618;1.438;2023-05-10T15:38:37;16.60;99.90
11656;DHT22;5884;43.618;1.438;2023-05-10T15:41:05;16.60;99.90
11656;DHT22;5884;43.618;1.438;2023-05-10T15:43:32;16.60;99.90
11656;DHT22;5884;43.618;1.438;2023-05-10T15:45:59;16.60;99.90
11656;DHT22;5884;43.618;1.438;2023-05-10T15:48:28;16.40;99.90
11656;DHT22;5884;43.618;1.438;2023-05-10T15:50:56;16.30;99.90
11656;DHT22;5884;43.618;1.438;2023-05-10T15:53:24;16.40;99.90
11656;DHT22;5884;43.618;1.438;2023-05-10T15:55:51;16.30;99.90
11656;DHT22;5884;43.618;1.438;2023-05-10T15:58:18;16.40;99.90
11656;DHT22;5884;43.618;1.438;2023-05-10T16:00:45;16.40;99.90
11656;DHT22;5884;43.618;1.438;2023-05-10T16:03:13;16.40;99.90
11656;DHT22;5884;43.618;1.438;2023-05-10T16:05:42;16.40;99.90
11656;DHT22;5884;43.618;1.438;2023-05-10T16:08:09;16.40;99.90
11656;DHT22;5884;43.618;1.438;2023-05-10T16:10:36;16.40;99.90
11656;DHT22;5884;43.618;1.438;2023-05-10T16:13:03;16.40;99.90
11656;DHT22;5884;43.618;1.438;2023-05-10T16:15:31;16.60;99.90
11656;DHT22;5884;43.618;1.438;2023-05-10T16:17:58;17.10;99.90
11656;DHT22;5884;43.618;1.438;2023-05-10T16:20:26;17.40;99.90
11656;DHT22;5884;43.618;1.438;2023-05-10T16:22:55;17.20;99.90
11656;DHT22;5884;43.618;1.438;2023-05-10T16:25:23;16.90;99.90
11656;DHT22;5884;43.618;1.438;2023-05-10T16:27:50;16.70;99.90
11656;DHT22;5884;43.618;1.438;2023-05-10T16:30:18;16.40;99.90
11656;DHT22;5884;43.618;1.438;2023-05-10T16:32:45;16.30;99.90
11656;DHT22;5884;43.618;1.438;2023-05-10T16:35:12;16.40;99.90
11656;DHT22;5884;43.618;1.438;2023-05-10T16:37:40;16.30;99.90
11656;DHT22;5884;43.618;1.438;2023-05-10T16:40:09;16.20;99.90
11656;DHT22;5884;43.618;1.438;2023-05-10T16:42:37;16.30;99.90
11656;DHT22;5884;43.618;1.438;2023-05-10T16:45:05;16.20;99.90
11656;DHT22;5884;43.618;1.438;2023-05-10T16:47:33;16.20;99.90
11656;DHT22;5884;43.618;1.438;2023-05-10T16:50:02;16.10;99.90
11656;DHT22;5884;43.618;1.438;2023-05-10T16:52:31;16.20;99.90
11656;DHT22;5884;43.618;1.438;2023-05-10T16:54:59;16.30;99.90
11656;DHT22;5884;43.618;1.438;2023-05-10T16:57:28;16.40;99.90
11656;DHT22;5884;43.618;1.438;2023-05-10T16:59:55;16.50;99.90
11656;DHT22;5884;43.618;1.438;2023-05-10T17:02:22;16.50;99.90
11656;DHT22;5884;43.618;1.438;2023-05-10T17:04:49;16.40;99.90
11656;DHT22;5884;43.618;1.438;2023-05-10T17:07:19;16.40;99.90
11656;DHT22;5884;43.618;1.438;2023-05-10T17:09:46;16.30;99.90
11656;DHT22;5884;43.618;1.438;2023-05-10T17:12:14;16.30;99.90
11656;DHT22;5884;43.618;1.438;2023-05-10T17:14:42;16.20;99.90
11656;DHT22;5884;43.618;1.438;2023-05-10T17:17:10;16.20;99.90
11656;DHT22;5884;43.618;1.438;2023-05-10T17:19:37;16.20;99.90
11656;DHT22;5884;43.618;1.438;2023-05-10T17:22:04;16.20;99.90
11656;DHT22;5884;43.618;1.438;2023-05-10T17:24:31;16.20;99.90
11656;DHT22;5884;43.618;1.438;2023-05-10T17:26:59;16.10;99.90
11656;DHT22;5884;43.618;1.438;2023-05-10T17:29:28;16.00;99.90
11656;DHT22;5884;43.618;1.438;2023-05-10T17:31:58;16.00;99.90
11656;DHT22;5884;43.618;1.438;2023-05-10T17:34:25;15.90;99.90
11656;DHT22;5884;43.618;1.438;2023-05-10T17:36:52;15.90;99.90
11656;DHT22;5884;43.618;1.438;2023-05-10T17:39:20;15.80;99.90
11656;DHT22;5884;43.618;1.438;2023-05-10T17:41:47;15.80;99.90
11656;DHT22;5884;43.618;1.438;2023-05-10T17:44:14;15.90;99.90
11656;DHT22;5884;43.618;1.438;2023-05-10T17:46:41;16.10;99.90
11656;DHT22;5884;43.618;1.438;2023-05-10T17:49:10;16.10;99.90
11656;DHT22;5884;43.618;1.438;2023-05-10T17:51:37;16.10;99.90
11656;DHT22;5884;43.618;1.438;2023-05-10T17:54:05;16.20;99.90
11656;DHT22;5884;43.618;1.438;2023-05-10T17:56:33;16.10;99.90
11656;DHT22;5884;43.618;1.438;2023-05-10T17:59:01;16.00;99.90
11656;DHT22;5884;43.618;1.438;2023-05-10T18:01:28;15.80;99.90
11656;DHT22;5884;43.618;1.438;2023-05-10T18:03:55;15.60;99.90
11656;DHT22;5884;43.618;1.438;2023-05-10T18:06:24;15.50;99.90
11656;DHT22;5884;43.618;1.438;2023-05-10T18:08:51;15.50;99.90
11656;DHT22;5884;43.618;1.438;2023-05-10T18:11:18;15.40;99.90
11656;DHT22;5884;43.618;1.438;2023-05-10T18:13:46;15.40;99.90
11656;DHT22;5884;43.618;1.438;2023-05-10T18:16:13;15.40;99.90
11656;DHT22;5884;43.618;1.438;2023-05-10T18:18:41;15.30;99.90
11656;DHT22;5884;43.618;1.438;2023-05-10T18:21:08;15.30;99.90
11656;DHT22;5884;43.618;1.438;2023-05-10T18:23:36;15.20;99.90
11656;DHT22;5884;43.618;1.438;2023-05-10T18:26:04;15.20;99.90
11656;DHT22;5884;43.618;1.438;2023-05-10T18:28:31;15.20;99.90
11656;DHT22;5884;43.618;1.438;2023-05-10T18:30:58;15.20;99.90
11656;DHT22;5884;43.618;1.438;2023-05-10T18:33:25;15.20;99.90
11656;DHT22;5884;43.618;1.438;2023-05-10T18:35:53;15.20;99.90
11656;DHT22;5884;43.618;1.438;2023-05-10T18:38:20;14.80;99.90
11656;DHT22;5884;43.618;1.438;2023-05-10T18:40:49;14.40;99.90
11656;DHT22;5884;43.618;1.438;2023-05-10T18:43:16;14.10;99.90
11656;DHT22;5884;43.618;1.438;2023-05-10T18:45:43;14.00;99.90
11656;DHT22;5884;43.618;1.438;2023-05-10T18:48:11;13.90;99.90
11656;DHT22;5884;43.618;1.438;2023-05-10T18:50:38;13.90;99.90
11656;DHT22;5884;43.618;1.438;2023-05-10T18:53:05;13.90;99.90
11656;DHT22;5884;43.618;1.438;2023-05-10T18:55:32;13.80;99.90
11656;DHT22;5884;43.618;1.438;2023-05-10T18:58:01;13.80;99.90
11656;DHT22;5884;43.618;1.438;2023-05-10T19:00:28;13.80;99.90
11656;DHT22;5884;43.618;1.438;2023-05-10T19:02:55;13.80;99.90
11656;DHT22;5884;43.618;1.438;2023-05-10T19:05:22;13.80;99.90
11656;DHT22;5884;43.618;1.438;2023-05-10T19:07:54;13.80;99.90
11656;DHT22;5884;43.618;1.438;2023-05-10T19:10:22;13.80;99.90
11656;DHT22;5884;43.618;1.438;2023-05-10T19:12:49;13.80;99.90
11656;DHT22;5884;43.618;1.438;2023-05-10T19:15:18;13.80;99.90
11656;DHT22;5884;43.618;1.438;2023-05-10T19:17:45;13.80;99.90
11656;DHT22;5884;43.618;1.438;2023-05-10T19:20:12;13.80;99.90
11656;DHT22;5884;43.618;1.438;2023-05-10T19:22:40;13.80;99.90
11656;DHT22;5884;43.618;1.438;2023-05-10T19:25:08;13.80;99.90
11656;DHT22;5884;43.618;1.438;2023-05-10T19:27:37;13.80;99.90
11656;DHT22;5884;43.618;1.438;2023-05-10T19:30:06;13.80;99.90
11656;DHT22;5884;43.618;1.438;2023-05-10T19:32:35;13.70;99.90
11656;DHT22;5884;43.618;1.438;2023-05-10T19:35:03;13.80;99.90
11656;DHT22;5884;43.618;1.438;2023-05-10T19:37:30;13.80;99.90
11656;DHT22;5884;43.618;1.438;2023-05-10T19:39:57;13.70;99.90
11656;DHT22;5884;43.618;1.438;2023-05-10T19:42:25;13.70;99.90
11656;DHT22;5884;43.618;1.438;2023-05-10T19:44:52;13.80;99.90
11656;DHT22;5884;43.618;1.438;2023-05-10T19:47:19;13.70;99.90
11656;DHT22;5884;43.618;1.438;2023-05-10T19:49:48;13.70;99.90
11656;DHT22;5884;43.618;1.438;2023-05-10T19:52:15;13.70;99.90
11656;DHT22;5884;43.618;1.438;2023-05-10T19:54:42;13.60;99.90
11656;DHT22;5884;43.618;1.438;2023-05-10T19:57:10;13.70;99.90
11656;DHT22;5884;43.618;1.438;2023-05-10T19:59:37;13.60;99.90
11656;DHT22;5884;43.618;1.438;2023-05-10T20:02:05;13.50;99.90
11656;DHT22;5884;43.618;1.438;2023-05-10T20:04:32;13.40;99.90
11656;DHT22;5884;43.618;1.438;2023-05-10T20:07:00;13.40;99.90
11656;DHT22;5884;43.618;1.438;2023-05-10T20:09:28;13.30;99.90
11656;DHT22;5884;43.618;1.438;2023-05-10T20:11:55;13.20;99.90
11656;DHT22;5884;43.618;1.438;2023-05-10T20:14:22;13.20;99.90
11656;DHT22;5884;43.618;1.438;2023-05-10T20:16:49;13.10;99.90
11656;DHT22;5884;43.618;1.438;2023-05-10T20:19:17;13.10;99.90
11656;DHT22;5884;43.618;1.438;2023-05-10T20:21:44;13.10;99.90
11656;DHT22;5884;43.618;1.438;2023-05-10T20:24:12;13.10;99.90
11656;DHT22;5884;43.618;1.438;2023-05-10T20:26:40;13.10;99.90
11656;DHT22;5884;43.618;1.438;2023-05-10T20:29:07;13.10;99.90
11656;DHT22;5884;43.618;1.438;2023-05-10T20:31:36;13.10;99.90
11656;DHT22;5884;43.618;1.438;2023-05-10T20:34:03;13.10;99.90
11656;DHT22;5884;43.618;1.438;2023-05-10T20:36:30;13.10;99.90